sensor_id;sensor_type;location;lat;lon;timestamp;pressure;altitude;pressure_sealevel;temperature;humidity
64886;BME280;51514;52.206;5.114;2023-05-12T00:01:54;101807.56;;;13.97;97.50
64886;BME280;51514;52.206;5.114;2023-05-12T00:04:20;101800.78;;;13.93;97.78
64886;BME280;51514;52.206;5.114;2023-05-12T00:06:45;101803.50;;;13.93;98.45
64886;BME280;51514;52.206;5.114;2023-05-12T00:09:10;101799.09;;;13.92;98.56
64886;BME280;51514;52.206;5.114;2023-05-12T00:11:36;101806.22;;;13.93;98.76
64886;BME280;51514;52.206;5.114;2023-05-12T00:14:02;101798.22;;;13.92;99.31
64886;BME280;51514;52.206;5.114;2023-05-12T00:16:27;101801.78;;;13.92;99.43
64886;BME280;51514;52.206;5.114;2023-05-12T00:18:53;101805.50;;;13.91;99.69
64886;BME280;51514;52.206;5.114;2023-05-12T00:21:18;101795.66;;;13.90;100.00
64886;BME280;51514;52.206;5.114;2023-05-12T00:23:44;101798.16;;;13.83;99.93
64886;BME280;51514;52.206;5.114;2023-05-12T00:26:09;101801.03;;;13.82;99.97
64886;BME280;51514;52.206;5.114;2023-05-12T00:28:34;101802.03;;;13.81;100.00
64886;BME280;51514;52.206;5.114;2023-05-12T00:31:01;101797.63;;;13.80;100.00
64886;BME280;51514;52.206;5.114;2023-05-12T00:33:28;101801.19;;;13.80;100.00
64886;BME280;51514;52.206;5.114;2023-05-12T00:35:53;101790.50;;;13.79;100.00
64886;BME280;51514;52.206;5.114;2023-05-12T00:38:18;101799.47;;;13.79;100.00
64886;BME280;51514;52.206;5.114;2023-05-12T00:40:43;101796.91;;;13.78;100.00
64886;BME280;51514;52.206;5.114;2023-05-12T00:43:09;101799.31;;;13.81;100.00
64886;BME280;51514;52.206;5.114;2023-05-12T00:45:35;101794.59;;;13.83;100.00
64886;BME280;51514;52.206;5.114;2023-05-12T00:48:01;101795.63;;;13.82;100.00
64886;BME280;51514;52.206;5.114;2023-05-12T00:50:27;101792.34;;;13.78;100.00
64886;BME280;51514;52.206;5.114;2023-05-12T00:52:53;101788.09;;;13.76;100.00
64886;BME280;51514;52.206;5.114;2023-05-12T00:55:18;101789.94;;;13.75;100.00
64886;BME280;51514;52.206;5.114;2023-05-12T00:57:44;101783.84;;;13.73;100.00
64886;BME280;51514;52.206;5.114;2023-05-12T01:00:10;101787.03;;;13.69;100.00
64886;BME280;51514;52.206;5.114;2023-05-12T01:02:36;101781.59;;;13.69;100.00
64886;BME280;51514;52.206;5.114;2023-05-12T01:05:02;101785.31;;;13.68;100.00
64886;BME280;51514;52.206;5.114;2023-05-12T01:07:30;101781.59;;;13.69;100.00
64886;BME280;51514;52.206;5.114;2023-05-12T01:09:56;101777.88;;;13.70;100.00
64886;BME280;51514;52.206;5.114;2023-05-12T01:12:22;101772.63;;;13.68;100.00
64886;BME280;51514;52.206;5.114;2023-05-12T01:14:49;101774.47;;;13.68;100.00
64886;BME280;51514;52.206;5.114;2023-05-12T01:17:18;101779.03;;;13.67;100.00
64886;BME280;51514;52.206;5.114;2023-05-12T01:19:47;101776.63;;;13.64;100.00
64886;BME280;51514;52.206;5.114;2023-05-12T01:22:14;101773.91;;;13.64;100.00
64886;BME280;51514;52.206;5.114;2023-05-12T01:25:05;101770.00;;;13.59;100.00
64886;BME280;51514;52.206;5.114;2023-05-12T01:27:33;101767.44;;;13.57;100.00
64886;BME280;51514;52.206;5.114;2023-05-12T01:30:03;101769.13;;;13.58;100.00
64886;BME280;51514;52.206;5.114;2023-05-12T01:32:29;101761.00;;;13.58;100.00
64886;BME280;51514;52.206;5.114;2023-05-12T01:34:54;101771.69;;;13.60;100.00
64886;BME280;51514;52.206;5.114;2023-05-12T01:37:20;101758.44;;;13.57;100.00
64886;BME280;51514;52.206;5.114;2023-05-12T01:39:45;101758.44;;;13.57;100.00
64886;BME280;51514;52.206;5.114;2023-05-12T01:42:10;101763.72;;;13.58;100.00
64886;BME280;51514;52.206;5.114;2023-05-12T01:44:36;101758.31;;;13.58;100.00
64886;BME280;51514;52.206;5.114;2023-05-12T01:47:01;101760.84;;;13.60;100.00
64886;BME280;51514;52.206;5.114;2023-05-12T01:49:27;101758.16;;;13.60;100.00
64886;BME280;51514;52.206;5.114;2023-05-12T01:51:52;101754.88;;;13.56;100.00
64886;BME280;51514;52.206;5.114;2023-05-12T01:54:18;101756.75;;;13.56;100.00
64886;BME280;51514;52.206;5.114;2023-05-12T01:56:43;101754.03;;;13.56;100.00
64886;BME280;51514;52.206;5.114;2023-05-12T01:59:08;101758.16;;;13.60;100.00
64886;BME280;51514;52.206;5.114;2023-05-12T02:01:34;101758.44;;;13.57;100.00
64886;BME280;51514;52.206;5.114;2023-05-12T02:04:01;101757.44;;;13.58;100.00
64886;BME280;51514;52.206;5.114;2023-05-12T02:06:27;101754.75;;;13.58;100.00
64886;BME280;51514;52.206;5.114;2023-05-12T02:08:53;101753.19;;;13.55;100.00
64886;BME280;51514;52.206;5.114;2023-05-12T02:11:18;101746.91;;;13.55;100.00
64886;BME280;51514;52.206;5.114;2023-05-12T02:13:43;101748.06;;;13.52;100.00
64886;BME280;51514;52.206;5.114;2023-05-12T02:16:09;101753.97;;;13.47;100.00
64886;BME280;51514;52.206;5.114;2023-05-12T02:18:35;101750.41;;;13.47;100.00
64886;BME280;51514;52.206;5.114;2023-05-12T02:21:00;101760.41;;;13.46;100.00
64886;BME280;51514;52.206;5.114;2023-05-12T02:23:26;101752.25;;;13.46;100.00
64886;BME280;51514;52.206;5.114;2023-05-12T02:25:51;101754.28;;;13.44;100.00
64886;BME280;51514;52.206;5.114;2023-05-12T02:28:16;101761.56;;;13.44;100.00
64886;BME280;51514;52.206;5.114;2023-05-12T02:30:46;101759.00;;;13.42;100.00
64886;BME280;51514;52.206;5.114;2023-05-12T02:33:16;101759.00;;;13.42;100.00
64886;BME280;51514;52.206;5.114;2023-05-12T02:35:42;101754.56;;;13.41;100.00
64886;BME280;51514;52.206;5.114;2023-05-12T02:38:08;101752.56;;;13.43;100.00
64886;BME280;51514;52.206;5.114;2023-05-12T02:40:33;101755.28;;;13.43;100.00
64886;BME280;51514;52.206;5.114;2023-05-12T02:42:58;101743.59;;;13.43;100.00
64886;BME280;51514;52.206;5.114;2023-05-12T02:45:24;101751.88;;;13.41;100.00
64886;BME280;51514;52.206;5.114;2023-05-12T02:47:49;101751.19;;;13.39;100.00
64886;BME280;51514;52.206;5.114;2023-05-12T02:50:15;101747.63;;;13.39;100.00
64886;BME280;51514;52.206;5.114;2023-05-12T02:52:40;101748.50;;;13.39;100.00
64886;BME280;51514;52.206;5.114;2023-05-12T02:55:06;101752.56;;;13.43;100.00
64886;BME280;51514;52.206;5.114;2023-05-12T02:57:32;101741.88;;;13.42;100.00
64886;BME280;51514;52.206;5.114;2023-05-12T03:00:02;101748.84;;;13.44;100.00
64886;BME280;51514;52.206;5.114;2023-05-12T03:02:40;101741.59;;;13.45;100.00
64886;BME280;51514;52.206;5.114;2023-05-12T03:05:06;101739.34;;;13.40;100.00
64886;BME280;51514;52.206;5.114;2023-05-12T03:07:32;101744.06;;;13.38;100.00
64886;BME280;51514;52.206;5.114;2023-05-12T03:09:57;101735.94;;;13.38;100.00
64886;BME280;51514;52.206;5.114;2023-05-12T03:12:23;101733.25;;;13.38;100.00
64886;BME280;51514;52.206;5.114;2023-05-12T03:14:49;101734.78;;;13.41;100.00
64886;BME280;51514;52.206;5.114;2023-05-12T03:17:15;101733.94;;;13.40;100.00
64886;BME280;51514;52.206;5.114;2023-05-12T03:19:40;101728.53;;;13.40;100.00
64886;BME280;51514;52.206;5.114;2023-05-12T03:22:06;101728.53;;;13.40;100.00
64886;BME280;51514;52.206;5.114;2023-05-12T03:24:32;101726.66;;;13.41;100.00
64886;BME280;51514;52.206;5.114;2023-05-12T03:26:57;101728.53;;;13.40;100.00
64886;BME280;51514;52.206;5.114;2023-05-12T03:29:23;101728.53;;;13.40;100.00
64886;BME280;51514;52.206;5.114;2023-05-12T03:31:48;101721.41;;;13.39;100.00
64886;BME280;51514;52.206;5.114;2023-05-12T03:34:14;101728.66;;;13.39;100.00
64886;BME280;51514;52.206;5.114;2023-05-12T03:36:39;101723.09;;;13.40;100.00
64886;BME280;51514;52.206;5.114;2023-05-12T03:39:05;101716.97;;;13.38;100.00
64886;BME280;51514;52.206;5.114;2023-05-12T03:41:32;101732.53;;;13.36;100.00
64886;BME280;51514;52.206;5.114;2023-05-12T03:43:58;101722.69;;;13.35;100.00
64886;BME280;51514;52.206;5.114;2023-05-12T03:46:24;101728.97;;;13.36;100.00
64886;BME280;51514;52.206;5.114;2023-05-12T03:48:49;101724.72;;;13.33;100.00
64886;BME280;51514;52.206;5.114;2023-05-12T03:51:14;101724.84;;;13.32;100.00
64886;BME280;51514;52.206;5.114;2023-05-12T03:53:40;101724.34;;;13.28;100.00
64886;BME280;51514;52.206;5.114;2023-05-12T03:56:09;101726.03;;;13.29;100.00
64886;BME280;51514;52.206;5.114;2023-05-12T03:58:35;101721.47;;;13.30;100.00
64886;BME280;51514;52.206;5.114;2023-05-12T04:01:00;101721.47;;;13.30;100.00
64886;BME280;51514;52.206;5.114;2023-05-12T04:03:26;101726.03;;;13.29;100.00
64886;BME280;51514;52.206;5.114;2023-05-12T04:06:02;101723.34;;;13.29;100.00
64886;BME280;51514;52.206;5.114;2023-05-12T04:08:28;101721.63;;;13.28;100.00
64886;BME280;51514;52.206;5.114;2023-05-12T04:10:55;101719.78;;;13.29;100.00
64886;BME280;51514;52.206;5.114;2023-05-12T04:13:22;101722.34;;;13.30;100.00
64886;BME280;51514;52.206;5.114;2023-05-12T04:15:47;101716.91;;;13.30;100.00
64886;BME280;51514;52.206;5.114;2023-05-12T04:18:13;101715.50;;;13.26;100.00
64886;BME280;51514;52.206;5.114;2023-05-12T04:20:38;101706.69;;;13.24;100.00
64886;BME280;51514;52.206;5.114;2023-05-12T04:23:04;101704.97;;;13.23;100.00
64886;BME280;51514;52.206;5.114;2023-05-12T04:25:29;101701.41;;;13.23;100.00
64886;BME280;51514;52.206;5.114;2023-05-12T04:27:54;101703.13;;;13.24;100.00
64886;BME280;51514;52.206;5.114;2023-05-12T04:30:20;101713.09;;;13.23;100.00
64886;BME280;51514;52.206;5.114;2023-05-12T04:32:46;101722.94;;;13.24;100.00
64886;BME280;51514;52.206;5.114;2023-05-12T04:35:12;101717.53;;;13.24;100.00
64886;BME280;51514;52.206;5.114;2023-05-12T04:37:37;101718.22;;;13.26;100.00
64886;BME280;51514;52.206;5.114;2023-05-12T04:40:04;101720.94;;;13.26;100.00
64886;BME280;51514;52.206;5.114;2023-05-12T04:42:31;101725.34;;;13.27;100.00
64886;BME280;51514;52.206;5.114;2023-05-12T04:44:56;101728.91;;;13.28;100.00
64886;BME280;51514;52.206;5.114;2023-05-12T04:47:22;101727.19;;;13.27;100.00
64886;BME280;51514;52.206;5.114;2023-05-12T04:49:47;101741.97;;;13.32;100.00
64886;BME280;51514;52.206;5.114;2023-05-12T04:52:12;101738.41;;;13.32;100.00
64886;BME280;51514;52.206;5.114;2023-05-12T04:54:37;101750.09;;;13.32;100.00
64886;BME280;51514;52.206;5.114;2023-05-12T04:57:03;101741.97;;;13.32;100.00
64886;BME280;51514;52.206;5.114;2023-05-12T04:59:29;101754.19;;;13.36;100.00
64886;BME280;51514;52.206;5.114;2023-05-12T05:01:56;101759.31;;;13.39;100.00
64886;BME280;51514;52.206;5.114;2023-05-12T05:04:21;101763.41;;;13.43;100.00
64886;BME280;51514;52.206;5.114;2023-05-12T05:06:47;101766.13;;;13.43;100.00
64886;BME280;51514;52.206;5.114;2023-05-12T05:09:12;101769.53;;;13.45;100.00
64886;BME280;51514;52.206;5.114;2023-05-12T05:11:37;101773.09;;;13.46;100.00
64886;BME280;51514;52.206;5.114;2023-05-12T05:14:03;101775.94;;;13.44;100.00
64886;BME280;51514;52.206;5.114;2023-05-12T05:16:28;101778.66;;;13.44;100.00
64886;BME280;51514;52.206;5.114;2023-05-12T05:18:53;101778.66;;;13.44;100.00
64886;BME280;51514;52.206;5.114;2023-05-12T05:21:19;101781.22;;;13.46;100.00
64886;BME280;51514;52.206;5.114;2023-05-12T05:23:44;101780.66;;;13.42;100.00
64886;BME280;51514;52.206;5.114;2023-05-12T05:26:09;101777.81;;;13.44;100.00
64886;BME280;51514;52.206;5.114;2023-05-12T05:28:36;101790.19;;;13.46;100.00
64886;BME280;51514;52.206;5.114;2023-05-12T05:31:04;101791.19;;;13.45;100.00
64886;BME280;51514;52.206;5.114;2023-05-12T05:33:29;101796.63;;;13.45;100.00
64886;BME280;51514;52.206;5.114;2023-05-12T05:35:55;101787.63;;;13.45;100.00
64886;BME280;51514;52.206;5.114;2023-05-12T05:38:20;101793.75;;;13.47;100.00
64886;BME280;51514;52.206;5.114;2023-05-12T05:40:46;101797.16;;;13.49;100.00
64886;BME280;51514;52.206;5.114;2023-05-12T05:43:11;101795.31;;;13.49;100.00
64886;BME280;51514;52.206;5.114;2023-05-12T05:45:36;101799.88;;;13.49;100.00
64886;BME280;51514;52.206;5.114;2023-05-12T05:48:02;101793.31;;;13.51;100.00
64886;BME280;51514;52.206;5.114;2023-05-12T05:50:27;101797.03;;;13.50;100.00
64886;BME280;51514;52.206;5.114;2023-05-12T05:52:52;101799.72;;;13.50;100.00
64886;BME280;51514;52.206;5.114;2023-05-12T05:55:19;101799.41;;;13.53;100.00
64886;BME280;51514;52.206;5.114;2023-05-12T05:57:45;101809.22;;;13.55;100.00
64886;BME280;51514;52.206;5.114;2023-05-12T06:00:11;101804.53;;;13.57;100.00
64886;BME280;51514;52.206;5.114;2023-05-12T06:02:36;101807.63;;;13.62;100.00
64886;BME280;51514;52.206;5.114;2023-05-12T06:05:02;101805.28;;;13.67;100.00
64886;BME280;51514;52.206;5.114;2023-05-12T06:07:27;101799.41;;;13.71;100.00
64886;BME280;51514;52.206;5.114;2023-05-12T06:09:53;101803.66;;;13.74;100.00
64886;BME280;51514;52.206;5.114;2023-05-12T06:12:19;101806.91;;;13.77;100.00
64886;BME280;51514;52.206;5.114;2023-05-12T06:14:44;101805.91;;;13.78;100.00
64886;BME280;51514;52.206;5.114;2023-05-12T06:17:09;101806.59;;;13.80;100.00
64886;BME280;51514;52.206;5.114;2023-05-12T06:19:35;101816.28;;;13.83;100.00
64886;BME280;51514;52.206;5.114;2023-05-12T06:22:00;101814.25;;;13.85;100.00
64886;BME280;51514;52.206;5.114;2023-05-12T06:24:26;101818.81;;;13.84;100.00
64886;BME280;51514;52.206;5.114;2023-05-12T06:26:51;101823.09;;;13.87;100.00
64886;BME280;51514;52.206;5.114;2023-05-12T06:29:16;101820.06;;;13.90;100.00
64886;BME280;51514;52.206;5.114;2023-05-12T06:31:42;101822.16;;;13.96;100.00
64886;BME280;51514;52.206;5.114;2023-05-12T06:34:07;101822.84;;;13.98;100.00
64886;BME280;51514;52.206;5.114;2023-05-12T06:36:33;101820.84;;;14.00;100.00
64886;BME280;51514;52.206;5.114;2023-05-12T06:38:58;101825.78;;;14.05;100.00
64886;BME280;51514;52.206;5.114;2023-05-12T06:41:24;101826.47;;;14.07;100.00
64886;BME280;51514;52.206;5.114;2023-05-12T06:43:50;101826.84;;;14.12;100.00
64886;BME280;51514;52.206;5.114;2023-05-12T06:46:16;101817.41;;;14.16;100.00
64886;BME280;51514;52.206;5.114;2023-05-12T06:48:42;101823.50;;;14.18;100.00
64886;BME280;51514;52.206;5.114;2023-05-12T06:51:07;101822.03;;;14.23;100.00
64886;BME280;51514;52.206;5.114;2023-05-12T06:53:33;101831.56;;;14.28;100.00
64886;BME280;51514;52.206;5.114;2023-05-12T06:56:02;101832.94;;;14.32;100.00
64886;BME280;51514;52.206;5.114;2023-05-12T06:58:28;101837.03;;;14.36;100.00
64886;BME280;51514;52.206;5.114;2023-05-12T07:00:53;101836.69;;;14.39;100.00
64886;BME280;51514;52.206;5.114;2023-05-12T07:03:18;101837.13;;;14.44;100.00
64886;BME280;51514;52.206;5.114;2023-05-12T07:05:44;101839.88;;;14.52;100.00
64886;BME280;51514;52.206;5.114;2023-05-12T07:08:09;101844.34;;;14.61;100.00
64886;BME280;51514;52.206;5.114;2023-05-12T07:10:35;101836.88;;;14.63;100.00
64886;BME280;51514;52.206;5.114;2023-05-12T07:13:02;101846.19;;;14.60;100.00
64886;BME280;51514;52.206;5.114;2023-05-12T07:15:27;101842.00;;;14.66;100.00
64886;BME280;51514;52.206;5.114;2023-05-12T07:17:53;101855.94;;;14.71;100.00
64886;BME280;51514;52.206;5.114;2023-05-12T07:20:20;101849.19;;;14.75;100.00
64886;BME280;51514;52.206;5.114;2023-05-12T07:22:45;101847.69;;;14.81;100.00
64886;BME280;51514;52.206;5.114;2023-05-12T07:25:10;101854.66;;;14.83;100.00
64886;BME280;51514;52.206;5.114;2023-05-12T07:27:37;101856.03;;;14.87;100.00
64886;BME280;51514;52.206;5.114;2023-05-12T07:30:04;101856.03;;;14.87;100.00
64886;BME280;51514;52.206;5.114;2023-05-12T07:32:30;101862.31;;;14.88;100.00
64886;BME280;51514;52.206;5.114;2023-05-12T07:34:55;101857.91;;;14.87;100.00
64886;BME280;51514;52.206;5.114;2023-05-12T07:37:20;101866.78;;;14.97;100.00
64886;BME280;51514;52.206;5.114;2023-05-12T07:39:45;101864.91;;;14.97;100.00
64886;BME280;51514;52.206;5.114;2023-05-12T07:42:11;101871.72;;;15.02;100.00
64886;BME280;51514;52.206;5.114;2023-05-12T07:44:36;101875.50;;;15.09;100.00
64886;BME280;51514;52.206;5.114;2023-05-12T07:47:02;101876.22;;;15.19;100.00
64886;BME280;51514;52.206;5.114;2023-05-12T07:49:27;101874.91;;;15.31;100.00
64886;BME280;51514;52.206;5.114;2023-05-12T07:51:52;101883.06;;;15.39;100.00
64886;BME280;51514;52.206;5.114;2023-05-12T07:54:17;101878.34;;;15.41;100.00
64886;BME280;51514;52.206;5.114;2023-05-12T07:56:43;101877.50;;;15.49;100.00
64886;BME280;51514;52.206;5.114;2023-05-12T07:59:08;101878.69;;;15.46;99.82
64886;BME280;51514;52.206;5.114;2023-05-12T08:01:34;101876.31;;;15.43;99.86
64886;BME280;51514;52.206;5.114;2023-05-12T08:04:00;101871.44;;;15.55;100.00
64886;BME280;51514;52.206;5.114;2023-05-12T08:06:25;101872.16;;;15.65;100.00
64886;BME280;51514;52.206;5.114;2023-05-12T08:08:50;101875.72;;;15.74;100.00
64886;BME280;51514;52.206;5.114;2023-05-12T08:11:16;101872.84;;;15.75;98.63
64886;BME280;51514;52.206;5.114;2023-05-12T08:13:41;101874.53;;;15.76;99.12
64886;BME280;51514;52.206;5.114;2023-05-12T08:16:07;101871.66;;;15.78;99.00
64886;BME280;51514;52.206;5.114;2023-05-12T08:18:32;101882.53;;;15.86;98.68
64886;BME280;51514;52.206;5.114;2023-05-12T08:20:57;101884.41;;;15.85;98.55
64886;BME280;51514;52.206;5.114;2023-05-12T08:23:23;101882.22;;;15.97;97.29
64886;BME280;51514;52.206;5.114;2023-05-12T08:25:48;101880.50;;;16.12;99.39
64886;BME280;51514;52.206;5.114;2023-05-12T08:28:13;101887.00;;;16.19;97.59
64886;BME280;51514;52.206;5.114;2023-05-12T08:30:40;101893.44;;;16.26;97.22
64886;BME280;51514;52.206;5.114;2023-05-12T08:33:05;101885.28;;;16.26;96.11
64886;BME280;51514;52.206;5.114;2023-05-12T08:35:30;101888.69;;;16.28;95.75
64886;BME280;51514;52.206;5.114;2023-05-12T08:37:56;101886.78;;;16.45;97.29
64886;BME280;51514;52.206;5.114;2023-05-12T08:40:23;101885.09;;;16.60;96.86
64886;BME280;51514;52.206;5.114;2023-05-12T08:43:12;101890.41;;;16.62;93.49
64886;BME280;51514;52.206;5.114;2023-05-12T08:45:43;101895.47;;;16.73;95.09
64886;BME280;51514;52.206;5.114;2023-05-12T08:48:09;101890.69;;;16.83;94.28
64886;BME280;51514;52.206;5.114;2023-05-12T08:50:35;101901.75;;;16.82;92.19
64886;BME280;51514;52.206;5.114;2023-05-12T08:53:03;101908.41;;;16.87;93.19
64886;BME280;51514;52.206;5.114;2023-05-12T08:55:29;101904.44;;;16.98;93.97
64886;BME280;51514;52.206;5.114;2023-05-12T08:57:57;101912.06;;;17.10;93.02
64886;BME280;51514;52.206;5.114;2023-05-12T09:00:24;101899.63;;;17.16;90.20
64886;BME280;51514;52.206;5.114;2023-05-12T09:02:51;101909.44;;;17.25;91.55
64886;BME280;51514;52.206;5.114;2023-05-12T09:05:17;101901.09;;;17.27;89.76
64886;BME280;51514;52.206;5.114;2023-05-12T09:07:43;101907.50;;;17.42;90.76
64886;BME280;51514;52.206;5.114;2023-05-12T09:10:16;101904.03;;;17.56;90.03
64886;BME280;51514;52.206;5.114;2023-05-12T09:12:45;101905.53;;;17.67;85.88
64886;BME280;51514;52.206;5.114;2023-05-12T09:15:17;101915.75;;;17.65;85.17
64886;BME280;51514;52.206;5.114;2023-05-12T09:17:44;101915.59;;;17.66;84.97
64886;BME280;51514;52.206;5.114;2023-05-12T09:20:11;101909.66;;;17.85;88.09
64886;BME280;51514;52.206;5.114;2023-05-12T09:22:36;101910.06;;;18.05;88.67
64886;BME280;51514;52.206;5.114;2023-05-12T09:25:17;101915.28;;;18.15;84.45
64886;BME280;51514;52.206;5.114;2023-05-12T09:27:45;101920.91;;;18.36;85.69
64886;BME280;51514;52.206;5.114;2023-05-12T09:30:11;101919.03;;;18.51;84.29
64886;BME280;51514;52.206;5.114;2023-05-12T09:32:37;101924.34;;;18.53;83.01
64886;BME280;51514;52.206;5.114;2023-05-12T09:35:07;101922.03;;;18.65;83.92
64886;BME280;51514;52.206;5.114;2023-05-12T09:37:36;101924.41;;;18.82;84.09
64886;BME280;51514;52.206;5.114;2023-05-12T09:40:04;101919.34;;;18.94;80.68
64886;BME280;51514;52.206;5.114;2023-05-12T09:42:31;101924.75;;;19.02;81.77
64886;BME280;51514;52.206;5.114;2023-05-12T09:45:06;101925.66;;;19.09;83.97
64886;BME280;51514;52.206;5.114;2023-05-12T09:47:36;101926.59;;;19.16;83.80
64886;BME280;51514;52.206;5.114;2023-05-12T09:50:03;101927.00;;;19.13;82.29
64886;BME280;51514;52.206;5.114;2023-05-12T09:52:30;101924.44;;;19.12;81.08
64886;BME280;51514;52.206;5.114;2023-05-12T09:55:07;101926.22;;;19.05;77.50
64886;BME280;51514;52.206;5.114;2023-05-12T09:57:43;101947.81;;;19.00;79.54
64886;BME280;51514;52.206;5.114;2023-05-12T10:00:12;101931.50;;;19.06;80.70
64886;BME280;51514;52.206;5.114;2023-05-12T10:02:41;101938.56;;;19.15;81.03
64886;BME280;51514;52.206;5.114;2023-05-12T10:05:13;101936.03;;;18.99;77.38
64886;BME280;51514;52.206;5.114;2023-05-12T10:07:43;101929.44;;;19.08;81.13
64886;BME280;51514;52.206;5.114;2023-05-12T10:10:11;101937.09;;;19.13;80.47
64886;BME280;51514;52.206;5.114;2023-05-12T10:12:38;101937.63;;;19.08;80.60
64886;BME280;51514;52.206;5.114;2023-05-12T10:15:05;101934.91;;;19.08;80.38
64886;BME280;51514;52.206;5.114;2023-05-12T10:17:31;101938.69;;;19.07;80.72
64886;BME280;51514;52.206;5.114;2023-05-12T10:19:57;101937.38;;;19.03;80.57
64886;BME280;51514;52.206;5.114;2023-05-12T10:22:23;101939.53;;;19.08;81.41
64886;BME280;51514;52.206;5.114;2023-05-12T10:24:51;101939.72;;;19.06;80.69
64886;BME280;51514;52.206;5.114;2023-05-12T10:27:18;101941.53;;;19.14;81.54
64886;BME280;51514;52.206;5.114;2023-05-12T10:29:44;101938.09;;;19.26;81.13
64886;BME280;51514;52.206;5.114;2023-05-12T10:32:12;101940.47;;;19.44;81.78
64886;BME280;51514;52.206;5.114;2023-05-12T10:34:38;101939.16;;;19.55;79.73
64886;BME280;51514;52.206;5.114;2023-05-12T10:37:06;101931.31;;;19.66;80.38
64886;BME280;51514;52.206;5.114;2023-05-12T10:39:51;101937.91;;;19.72;79.47
64886;BME280;51514;52.206;5.114;2023-05-12T10:42:20;101934.53;;;19.91;80.56
64886;BME280;51514;52.206;5.114;2023-05-12T10:44:51;101942.72;;;20.06;80.18
64886;BME280;51514;52.206;5.114;2023-05-12T10:47:16;101938.75;;;20.09;78.32
64886;BME280;51514;52.206;5.114;2023-05-12T10:49:42;101944.09;;;20.17;77.33
64886;BME280;51514;52.206;5.114;2023-05-12T10:52:10;101925.25;;;20.07;73.49
64886;BME280;51514;52.206;5.114;2023-05-12T10:54:43;101933.78;;;20.19;77.01
64886;BME280;51514;52.206;5.114;2023-05-12T10:57:18;101933.94;;;20.32;76.98
64886;BME280;51514;52.206;5.114;2023-05-12T10:59:51;101935.72;;;20.39;74.14
64886;BME280;51514;52.206;5.114;2023-05-12T11:02:22;101936.00;;;20.30;71.55
64886;BME280;51514;52.206;5.114;2023-05-12T11:04:51;101932.59;;;20.28;72.07
64886;BME280;51514;52.206;5.114;2023-05-12T11:07:35;101934.25;;;20.22;72.26
64886;BME280;51514;52.206;5.114;2023-05-12T11:10:02;101937.56;;;20.18;69.74
64886;BME280;51514;52.206;5.114;2023-05-12T11:12:30;101935.63;;;20.33;70.51
64886;BME280;51514;52.206;5.114;2023-05-12T11:14:58;101939.63;;;20.52;72.73
64886;BME280;51514;52.206;5.114;2023-05-12T11:17:25;101936.56;;;20.68;70.28
64886;BME280;51514;52.206;5.114;2023-05-12T11:19:50;101932.97;;;20.67;68.72
64886;BME280;51514;52.206;5.114;2023-05-12T11:22:18;101933.31;;;20.58;69.72
64886;BME280;51514;52.206;5.114;2023-05-12T11:24:45;101931.78;;;20.49;68.16
64886;BME280;51514;52.206;5.114;2023-05-12T11:27:12;101941.00;;;20.41;68.11
64886;BME280;51514;52.206;5.114;2023-05-12T11:29:37;101938.81;;;20.58;70.46
64886;BME280;51514;52.206;5.114;2023-05-12T11:32:05;101936.84;;;20.73;68.95
64886;BME280;51514;52.206;5.114;2023-05-12T11:34:31;101937.50;;;20.75;67.46
64886;BME280;51514;52.206;5.114;2023-05-12T11:36:56;101942.63;;;20.85;66.44
64886;BME280;51514;52.206;5.114;2023-05-12T11:39:23;101940.34;;;20.67;67.23
64886;BME280;51514;52.206;5.114;2023-05-12T11:41:49;101935.53;;;20.69;67.97
64886;BME280;51514;52.206;5.114;2023-05-12T11:44:18;101948.75;;;20.87;68.34
64886;BME280;51514;52.206;5.114;2023-05-12T11:47:02;101947.50;;;20.89;64.22
64886;BME280;51514;52.206;5.114;2023-05-12T11:49:47;101943.66;;;20.84;62.60
64886;BME280;51514;52.206;5.114;2023-05-12T11:52:13;101948.69;;;20.80;66.11
64886;BME280;51514;52.206;5.114;2023-05-12T11:54:47;101943.47;;;20.85;68.39
64886;BME280;51514;52.206;5.114;2023-05-12T11:57:23;101947.84;;;20.80;68.83
64886;BME280;51514;52.206;5.114;2023-05-12T11:59:56;101944.88;;;20.74;65.02
64886;BME280;51514;52.206;5.114;2023-05-12T12:02:22;101944.56;;;20.91;66.52
64886;BME280;51514;52.206;5.114;2023-05-12T12:04:47;101942.16;;;21.09;67.50
64886;BME280;51514;52.206;5.114;2023-05-12T12:07:13;101948.34;;;21.18;66.68
64886;BME280;51514;52.206;5.114;2023-05-12T12:09:39;101933.19;;;21.22;66.77
64886;BME280;51514;52.206;5.114;2023-05-12T12:12:06;101935.16;;;21.34;66.38
64886;BME280;51514;52.206;5.114;2023-05-12T12:14:33;101937.94;;;21.41;66.04
64886;BME280;51514;52.206;5.114;2023-05-12T12:16:59;101937.13;;;21.54;65.21
64886;BME280;51514;52.206;5.114;2023-05-12T12:19:25;101938.19;;;21.53;63.17
64886;BME280;51514;52.206;5.114;2023-05-12T12:21:55;101935.63;;;21.44;64.83
64886;BME280;51514;52.206;5.114;2023-05-12T12:24:21;101941.09;;;21.38;64.63
64886;BME280;51514;52.206;5.114;2023-05-12T12:26:46;101946.31;;;21.26;57.99
64886;BME280;51514;52.206;5.114;2023-05-12T12:29:12;101940.47;;;21.08;59.19
64886;BME280;51514;52.206;5.114;2023-05-12T12:31:37;101952.31;;;21.15;63.15
64886;BME280;51514;52.206;5.114;2023-05-12T12:34:03;101958.19;;;21.12;62.56
64886;BME280;51514;52.206;5.114;2023-05-12T12:36:29;101955.88;;;21.09;65.55
64886;BME280;51514;52.206;5.114;2023-05-12T12:38:54;101961.97;;;21.11;65.79
64886;BME280;51514;52.206;5.114;2023-05-12T12:41:20;101956.16;;;21.21;68.93